Time;durP1;ratioP1;P1;durP2;ratioP2;P2;SDS_P1;SDS_P2;PMS_P1;PMS_P2;Temp;Humidity;BMP_temperature;BMP_pressure;BME280_temperature;BME280_humidity;BME280_pressure;Samples;Min_cycle;Max_cycle;Signal;HPM_P1;HPM_P2
2022/12/03 00:00:35;;;;;;;14.75;10.98;;;;;;;3.77;79.53;100069.81;1087767;54;20034;-79
2022/12/03 00:01:39;;;;;;;14.95;10.18;;;;;;;3.77;79.64;100070.69;1087836;54;20030;-80
2022/12/03 00:02:43;;;;;;;14.15;9.77;;;;;;;3.86;79.29;100063.91;1087755;54;20038;-79
2022/12/03 00:03:48;;;;;;;13.20;9.48;;;;;;;3.94;79.14;100066.06;1087722;54;20959;-80
2022/12/03 00:04:50;;;;;;;13.32;9.48;;;;;;;3.88;78.86;100069.97;1087711;54;20043;-81
2022/12/03 00:05:54;;;;;;;13.45;9.75;;;;;;;3.77;79.09;100059.25;1087746;54;20045;-80
2022/12/03 00:06:56;;;;;;;13.82;9.60;;;;;;;3.82;79.03;100068.56;1087718;54;20041;-80
2022/12/03 00:08:00;;;;;;;13.45;10.13;;;;;;;3.80;79.11;100064.34;1088526;47;20863;-79
2022/12/03 00:09:03;;;;;;;14.85;10.52;;;;;;;3.74;78.92;100066.41;1087691;54;20014;-80
2022/12/03 00:10:09;;;;;;;13.85;10.15;;;;;;;3.69;79.33;100065.88;1087783;54;20033;-80
2022/12/03 00:11:11;;;;;;;13.65;10.00;;;;;;;3.76;79.14;100063.69;1087841;54;20035;-81
2022/12/03 00:12:15;;;;;;;14.05;10.15;;;;;;;3.78;79.40;100072.34;1088727;47;20098;-79
2022/12/03 00:13:16;;;;;;;15.35;10.02;;;;;;;3.73;79.02;100069.19;1088186;47;20047;-79
2022/12/03 00:14:21;;;;;;;15.43;10.63;;;;;;;3.74;79.07;100068.22;1087889;47;20074;-80
2022/12/03 00:15:23;;;;;;;14.43;10.02;;;;;;;3.80;79.17;100069.63;1087782;54;20030;-79
2022/12/03 00:16:27;;;;;;;11.90;8.30;;;;;;;3.87;79.00;100069.09;1088701;39;20605;-80
2022/12/03 00:17:29;;;;;;;15.18;9.80;;;;;;;3.83;78.56;100070.28;1087797;54;20035;-81
2022/12/03 00:18:37;;;;;;;14.77;9.75;;;;;;;3.78;78.48;100069.72;1088691;39;20693;-80
2022/12/03 00:19:38;;;;;;;14.68;10.30;;;;;;;3.73;79.00;100070.00;1087647;54;20044;-79
2022/12/03 00:20:49;;;;;;;14.57;10.27;;;;;;;3.74;79.08;100073.53;1087720;54;20045;-82
2022/12/03 00:21:51;;;;;;;14.10;9.80;;;;;;;3.76;78.94;100068.97;1087802;54;20030;-79
2022/12/03 00:22:55;;;;;;;14.10;10.05;;;;;;;3.81;78.95;100073.97;1087779;54;20033;-80
2022/12/03 00:23:57;;;;;;;12.48;8.88;;;;;;;3.86;78.83;100070.06;1087600;54;20783;-80
2022/12/03 00:25:01;;;;;;;13.48;9.45;;;;;;;3.81;78.64;100072.16;1087740;54;20031;-80
2022/12/03 00:26:03;;;;;;;12.90;8.95;;;;;;;3.85;78.48;100071.03;1089627;39;20801;-81
2022/12/03 00:27:07;;;;;;;12.85;9.52;;;;;;;3.80;78.86;100073.09;1087690;54;20037;-80
2022/12/03 00:28:11;;;;;;;14.40;10.10;;;;;;;3.82;78.37;100073.88;1087807;54;20018;-81
2022/12/03 00:29:13;;;;;;;14.88;10.60;;;;;;;3.73;78.58;100075.28;1087625;54;20055;-81
2022/12/03 00:30:17;;;;;;;15.07;10.32;;;;;;;3.67;78.90;100074.88;1087787;54;20033;-80
2022/12/03 00:31:22;;;;;;;14.70;10.88;;;;;;;3.70;78.81;100078.16;1087766;54;20031;-79
2022/12/03 00:32:26;;;;;;;16.27;11.80;;;;;;;3.70;79.08;100077.28;1087751;54;20098;-80
2022/12/03 00:33:28;;;;;;;14.63;10.50;;;;;;;3.67;79.18;100065.13;1087918;54;20041;-80
2022/12/03 00:34:35;;;;;;;14.50;10.80;;;;;;;3.55;79.14;100072.06;1087978;54;20048;-80
2022/12/03 00:35:36;;;;;;;13.85;10.13;;;;;;;3.61;79.04;100073.47;1088101;54;20038;-80
2022/12/03 00:36:40;;;;;;;14.43;10.57;;;;;;;3.63;78.90;100078.66;1088039;54;20035;-79
2022/12/03 00:37:42;;;;;;;16.17;10.90;;;;;;;3.64;79.19;100075.91;1088135;54;20038;-80
2022/12/03 00:38:47;;;;;;;15.23;9.98;;;;;;;3.63;79.17;100068.06;1088082;54;20106;-80
2022/12/03 00:39:49;;;;;;;13.50;9.85;;;;;;;3.67;78.81;100072.22;1089176;46;20046;-79
2022/12/03 00:40:53;;;;;;;13.05;9.35;;;;;;;3.64;79.13;100075.06;1088127;54;20789;-79
2022/12/03 00:41:55;;;;;;;15.48;10.40;;;;;;;3.65;78.80;100076.75;1088579;39;20644;-80
2022/12/03 00:43:00;;;;;;;13.98;10.05;;;;;;;3.69;78.90;100075.59;1088054;54;20030;-80
2022/12/03 00:44:01;;;;;;;14.02;9.60;;;;;;;3.66;78.92;100073.19;1088000;54;20034;-80
2022/12/03 00:45:07;;;;;;;14.05;9.00;;;;;;;3.68;78.77;100077.41;1088058;54;20030;-79
2022/12/03 00:46:08;;;;;;;15.63;10.43;;;;;;;3.68;78.81;100076.56;1088204;54;20031;-81
2022/12/03 00:47:12;;;;;;;13.95;10.25;;;;;;;3.59;78.94;100070.06;1098294;39;20663;-81
2022/12/03 00:48:14;;;;;;;14.15;10.38;;;;;;;3.60;79.00;100077.06;1088528;46;20054;-81
2022/12/03 00:49:18;;;;;;;16.05;10.43;;;;;;;3.55;79.01;100080.00;1088254;54;20032;-80
2022/12/03 00:50:22;;;;;;;15.38;10.68;;;;;;;3.49;78.91;100079.53;1088019;54;20026;-80
2022/12/03 00:51:27;;;;;;;14.68;10.55;;;;;;;3.49;79.23;100079.53;1088011;54;20038;-81
2022/12/03 00:52:28;;;;;;;15.45;11.15;;;;;;;3.45;79.18;100086.00;1088045;54;20041;-80
2022/12/03 00:53:32;;;;;;;16.73;11.13;;;;;;;3.44;79.26;100082.47;1088389;46;20127;-80
2022/12/03 00:54:34;;;;;;;16.27;11.25;;;;;;;3.46;79.68;100074.44;1088048;54;20061;-80
2022/12/03 00:55:38;;;;;;;16.35;10.32;;;;;;;3.49;79.50;100083.06;1088064;54;20034;-81
2022/12/03 00:56:40;;;;;;;14.68;10.43;;;;;;;3.48;79.35;100081.34;1088102;54;20031;-80
2022/12/03 00:57:45;;;;;;;13.50;10.13;;;;;;;3.54;79.59;100086.22;1088070;54;20034;-80
2022/12/03 00:58:46;;;;;;;14.93;10.20;;;;;;;3.55;79.47;100082.66;1088057;54;20035;-79
2022/12/03 00:59:50;;;;;;;15.80;10.65;;;;;;;3.63;79.38;100084.81;1088031;54;20030;-80
2022/12/03 01:00:52;;;;;;;14.90;10.38;;;;;;;3.67;78.88;100081.00;1088978;39;20927;-81
2022/12/03 01:01:56;;;;;;;15.48;11.00;;;;;;;3.60;78.75;100085.00;1088106;54;20057;-81
2022/12/03 01:02:58;;;;;;;14.98;10.60;;;;;;;3.64;78.75;100080.34;1088633;46;20022;-81
2022/12/03 01:04:02;;;;;;;15.95;10.52;;;;;;;3.59;79.07;100072.72;1087780;54;20045;-81
2022/12/03 01:05:05;;;;;;;15.40;10.73;;;;;;;3.65;78.90;100079.41;1088074;54;20038;-80
2022/12/03 01:06:11;;;;;;;16.27;10.93;;;;;;;3.63;79.30;100081.28;1088116;54;20018;-80
2022/12/03 01:07:13;;;;;;;15.93;11.10;;;;;;;3.65;79.24;100084.69;1091609;39;20719;-80
2022/12/03 01:08:18;;;;;;;15.95;10.93;;;;;;;3.68;79.11;100081.84;1087999;54;21032;-81
2022/12/03 01:09:19;;;;;;;17.00;12.43;;;;;;;3.61;78.80;100080.53;1087995;54;20030;-80
2022/12/03 01:10:23;;;;;;;16.67;11.70;;;;;;;3.61;79.29;100085.81;1088017;54;20053;-81
2022/12/03 01:11:37;;;;;;;14.95;10.05;;;;;;;3.65;79.07;100080.25;1088075;54;21066;-80
2022/12/03 01:12:42;;;;;;;15.73;10.88;;;;;;;3.67;78.99;100085.44;1088016;54;20030;-79
2022/12/03 01:13:43;;;;;;;16.08;10.30;;;;;;;3.64;78.85;100075.06;1088023;54;21285;-80
2022/12/03 01:14:48;;;;;;;15.45;10.55;;;;;;;3.59;78.93;100084.13;1088152;46;20049;-81
2022/12/03 01:15:49;;;;;;;17.58;12.65;;;;;;;3.50;79.58;100079.44;1087980;54;20057;-81
2022/12/03 01:16:53;;;;;;;16.38;11.00;;;;;;;3.62;79.26;100071.66;1088353;46;20034;-81
2022/12/03 01:17:55;;;;;;;15.07;10.88;;;;;;;3.64;79.15;100086.47;1088105;46;20067;-80
2022/12/03 01:18:59;;;;;;;16.90;11.82;;;;;;;3.58;78.85;100082.47;1088023;54;20026;-80
2022/12/03 01:20:01;;;;;;;17.58;11.35;;;;;;;3.54;79.22;100080.94;1088010;54;20030;-80
2022/12/03 01:21:05;;;;;;;17.25;11.57;;;;;;;3.55;79.00;100087.06;1088013;54;20010;-81
2022/12/03 01:22:11;;;;;;;16.38;11.48;;;;;;;3.55;79.21;100080.00;1088145;54;20019;-81
2022/12/03 01:23:15;;;;;;;16.23;11.52;;;;;;;3.50;79.37;100084.72;1088013;54;20052;-79
2022/12/03 01:24:17;;;;;;;21.58;12.45;;;;;;;3.54;79.28;100091.53;1089411;46;20023;-81
2022/12/03 01:25:22;;;;;;;17.65;11.88;;;;;;;3.52;79.44;100082.84;1087972;54;20031;-80
2022/12/03 01:26:24;;;;;;;15.75;10.82;;;;;;;3.57;79.49;100085.19;1088050;54;20737;-80
2022/12/03 01:27:28;;;;;;;16.70;11.48;;;;;;;3.55;79.30;100093.22;1088000;54;20031;-79
2022/12/03 01:28:30;;;;;;;17.63;12.00;;;;;;;3.49;79.73;100092.75;1088022;54;20057;-81
2022/12/03 01:29:34;;;;;;;18.35;11.75;;;;;;;3.48;79.62;100094.56;1087578;54;20030;-79
2022/12/03 01:32:15;;;;;;;20.83;13.15;;;;;;;3.48;79.52;100094.56;1087063;54;20729;-80
2022/12/03 01:33:17;;;;;;;16.58;11.70;;;;;;;3.41;79.80;100087.94;1087134;54;20042;-80
2022/12/03 01:34:19;;;;;;;16.52;11.98;;;;;;;3.39;79.91;100082.78;1087008;54;20038;-79
2022/12/03 01:35:23;;;;;;;17.23;11.88;;;;;;;3.39;80.03;100085.41;1086985;54;20038;-79
2022/12/03 01:36:25;;;;;;;17.52;12.63;;;;;;;3.44;80.05;100085.13;1087415;46;20026;-79
2022/12/03 01:37:31;;;;;;;16.50;11.32;;;;;;;3.50;79.69;100083.88;1086987;54;20559;-80
2022/12/03 01:38:33;;;;;;;16.58;11.98;;;;;;;3.48;80.00;100091.06;1086997;54;20642;-79
2022/12/03 01:39:38;;;;;;;19.60;13.13;;;;;;;3.48;79.45;100089.28;1087241;46;20056;-80
2022/12/03 01:40:40;;;;;;;17.67;12.15;;;;;;;3.49;79.55;100087.47;1086871;54;20061;-81
2022/12/03 01:41:44;;;;;;;18.35;12.85;;;;;;;3.45;79.41;100091.28;1087074;54;20022;-82
2022/12/03 01:42:45;;;;;;;18.75;12.63;;;;;;;3.44;79.64;100093.06;1087271;39;20537;-80
2022/12/03 01:43:50;;;;;;;17.35;11.82;;;;;;;3.49;79.63;100092.75;1086865;54;20109;-81
2022/12/03 01:44:54;;;;;;;17.65;12.23;;;;;;;3.43;79.82;100086.06;1086700;54;20038;-80
2022/12/03 01:45:59;;;;;;;19.27;13.25;;;;;;;3.37;80.04;100089.94;1087018;54;20085;-81
2022/12/03 01:47:03;;;;;;;19.50;12.52;;;;;;;3.36;80.19;100095.34;1086907;54;20042;-81
2022/12/03 01:48:07;;;;;;;19.83;13.40;;;;;;;3.36;80.12;100090.88;1086798;54;20039;-80
2022/12/03 01:49:15;;;;;;;17.80;11.98;;;;;;;3.36;80.21;100088.25;1086951;54;20093;-80
2022/12/03 01:50:22;;;;;;;19.45;12.52;;;;;;;3.41;80.33;100086.19;1087077;54;20624;-80
2022/12/03 01:51:24;;;;;;;19.92;13.52;;;;;;;3.38;80.26;100089.00;1087141;54;20038;-81
2022/12/03 01:52:34;;;;;;;19.13;13.00;;;;;;;3.35;80.02;100088.34;1086962;54;20026;-80
2022/12/03 01:53:35;;;;;;;20.15;13.15;;;;;;;3.30;80.09;100087.81;1087402;54;20038;-81
2022/12/03 01:54:43;;;;;;;20.10;13.57;;;;;;;3.31;80.52;100089.50;1087768;54;20033;-80
2022/12/03 01:55:45;;;;;;;19.27;12.50;;;;;;;3.30;80.10;100093.09;1087993;54;20030;-81
2022/12/03 01:56:50;;;;;;;19.40;13.65;;;;;;;3.30;80.43;100093.09;1087963;54;20030;-82
2022/12/03 01:57:54;;;;;;;19.98;13.40;;;;;;;3.30;80.45;100096.56;1087904;54;20830;-81
2022/12/03 01:58:58;;;;;;;19.42;13.55;;;;;;;3.30;80.24;100093.09;1087874;54;20021;-80
2022/12/03 02:00:01;;;;;;;19.25;13.15;;;;;;;3.26;80.37;100090.63;1087964;54;20041;-79
2022/12/03 02:01:13;;;;;;;19.20;13.43;;;;;;;3.27;80.60;100089.69;1087877;54;20030;-80
2022/12/03 02:02:22;;;;;;;19.65;13.45;;;;;;;3.28;80.57;100093.16;1088101;54;20065;-80
2022/12/03 02:03:25;;;;;;;20.48;13.75;;;;;;;3.27;80.39;100088.81;1089426;39;21130;-81
2022/12/03 02:04:29;;;;;;;23.08;14.25;;;;;;;3.23;80.97;100093.47;1087619;54;20039;-79
2022/12/03 02:05:32;;;;;;;20.38;13.93;;;;;;;3.26;80.77;100092.41;1087933;54;20053;-80
2022/12/03 02:06:36;;;;;;;19.55;13.55;;;;;;;3.30;80.73;100088.63;1087916;54;20042;-80
2022/12/03 02:07:40;;;;;;;21.05;13.65;;;;;;;3.28;80.73;100088.75;1087946;54;20061;-79
2022/12/03 02:08:46;;;;;;;22.40;14.40;;;;;;;3.22;80.83;100083.84;1087866;54;20887;-81
2022/12/03 02:09:47;;;;;;;20.45;12.70;;;;;;;3.22;80.89;100091.75;1087889;54;20034;-80
2022/12/03 02:10:51;;;;;;;19.73;13.27;;;;;;;3.26;80.84;100092.41;1087936;54;20077;-81
2022/12/03 02:11:53;;;;;;;18.92;13.68;;;;;;;3.29;80.57;100092.22;1087462;54;20038;-79
2022/12/03 02:13:01;;;;;;;19.20;13.32;;;;;;;3.35;80.79;100086.56;1087306;54;20050;-79
2022/12/03 02:14:08;;;;;;;21.80;14.27;;;;;;;3.32;80.72;100080.59;1087234;54;20613;-79
2022/12/03 02:15:13;;;;;;;20.08;13.35;;;;;;;3.33;80.76;100083.19;1087171;54;20061;-79
2022/12/03 02:16:14;;;;;;;20.08;13.75;;;;;;;3.33;80.92;100087.59;1092517;31;20527;-78
2022/12/03 02:17:19;;;;;;;18.77;12.75;;;;;;;3.38;80.85;100093.44;1087238;54;20106;-79
2022/12/03 02:18:21;;;;;;;21.92;14.70;;;;;;;3.37;80.76;100091.75;1087529;54;20065;-80
2022/12/03 02:19:30;;;;;;;19.92;12.80;;;;;;;3.35;80.76;100078.66;1087099;54;20524;-80
2022/12/03 02:20:38;;;;;;;20.17;14.02;;;;;;;3.32;80.96;100080.59;1087339;54;20045;-79
2022/12/03 02:21:51;;;;;;;18.55;12.90;;;;;;;3.33;81.12;100091.09;1087152;54;20061;-80
2022/12/03 02:23:02;;;;;;;18.67;12.85;;;;;;;3.37;81.08;100083.81;1087279;54;20058;-79
2022/12/03 02:24:14;;;;;;;20.27;13.25;;;;;;;3.33;80.57;100087.59;1087076;54;20049;-80
2022/12/03 02:25:20;;;;;;;21.05;13.65;;;;;;;3.31;80.97;100089.50;1087423;39;20539;-80
2022/12/03 02:26:24;;;;;;;17.50;12.13;;;;;;;3.34;81.00;100089.28;1087097;54;20061;-80
2022/12/03 02:27:27;;;;;;;18.20;12.32;;;;;;;3.34;80.98;100084.00;1086924;54;20069;-79
2022/12/03 02:28:31;;;;;;;20.23;13.23;;;;;;;3.30;80.97;100088.63;1087259;54;20030;-78
2022/12/03 02:29:33;;;;;;;20.48;13.98;;;;;;;3.31;80.84;100086.88;1087064;54;20046;-80
2022/12/03 02:30:38;;;;;;;22.42;14.45;;;;;;;3.29;80.96;100086.94;1087306;54;20034;-79
2022/12/03 02:31:41;;;;;;;19.27;13.27;;;;;;;3.38;80.95;100090.81;1087869;54;20027;-80
2022/12/03 02:32:45;;;;;;;20.42;14.23;;;;;;;3.40;80.81;100084.47;1088299;46;20019;-79
2022/12/03 02:33:47;;;;;;;22.95;14.15;;;;;;;3.38;80.32;100086.34;1087836;54;20019;-80
2022/12/03 02:34:52;;;;;;;22.00;15.02;;;;;;;3.39;80.61;100087.22;1087899;54;20037;-80
2022/12/03 02:35:55;;;;;;;20.38;13.50;;;;;;;3.39;80.41;100090.69;1087886;54;20042;-80
2022/12/03 02:36:59;;;;;;;19.30;13.15;;;;;;;3.40;80.24;100084.47;1087820;54;20086;-79
2022/12/03 02:38:05;;;;;;;22.23;14.13;;;;;;;3.35;80.38;100086.56;1087939;54;20034;-80
2022/12/03 02:39:10;;;;;;;19.50;14.07;;;;;;;3.35;80.49;100083.06;1089690;46;20019;-80
2022/12/03 02:40:16;;;;;;;19.95;13.40;;;;;;;3.39;80.61;100085.41;1088012;54;20041;-81
2022/12/03 02:42:41;;;;;;;20.45;13.85;;;;;;;3.38;80.83;100089.00;1087942;54;20035;-80
2022/12/03 02:43:42;;;;;;;19.67;12.82;;;;;;;3.43;80.57;100086.06;1087859;54;20034;-80
2022/12/03 02:44:44;;;;;;;20.00;13.15;;;;;;;3.43;80.18;100076.34;1088016;46;20046;-81
2022/12/03 02:45:51;;;;;;;21.42;14.70;;;;;;;3.43;80.21;100086.06;1087919;54;20693;-80
2022/12/03 02:46:53;;;;;;;22.48;14.35;;;;;;;3.37;80.40;100078.53;1087905;54;20057;-80
2022/12/03 02:48:00;;;;;;;19.45;13.63;;;;;;;3.31;80.76;100085.06;1087803;54;20030;-79
2022/12/03 02:49:03;;;;;;;21.45;13.95;;;;;;;3.26;80.68;100082.72;1087884;54;20042;-80
2022/12/03 02:50:08;;;;;;;21.77;14.93;;;;;;;3.25;81.00;100082.81;1088356;39;20707;-80
2022/12/03 02:51:13;;;;;;;22.27;14.15;;;;;;;3.23;81.00;100084.69;1087884;54;20054;-81
2022/12/03 02:52:15;;;;;;;20.42;13.38;;;;;;;3.22;81.12;100081.19;1087514;54;20568;-81
2022/12/03 02:53:23;;;;;;;22.02;13.77;;;;;;;3.22;81.32;100080.34;1090015;46;20034;-79
2022/12/03 02:54:24;;;;;;;19.73;13.25;;;;;;;3.27;81.12;100086.19;1087054;54;20034;-80
2022/12/03 02:55:30;;;;;;;22.25;14.85;;;;;;;3.26;81.08;100082.72;1087752;54;20061;-79
2022/12/03 02:56:38;;;;;;;21.85;14.38;;;;;;;3.31;81.01;100085.06;1088523;39;20704;-80
2022/12/03 02:57:40;;;;;;;20.38;12.55;;;;;;;3.35;80.86;100083.94;1087566;54;20034;-79
2022/12/03 02:58:46;;;;;;;22.38;13.88;;;;;;;3.37;80.82;100091.75;1087030;54;20033;-80
2022/12/03 02:59:47;;;;;;;23.85;14.88;;;;;;;3.36;80.49;100090.06;1087030;54;20034;-80
2022/12/03 03:00:54;;;;;;;22.00;14.43;;;;;;;3.32;80.55;100086.75;1087207;54;20038;-79
2022/12/03 03:01:56;;;;;;;23.20;14.63;;;;;;;3.27;81.14;100088.81;1087201;54;20034;-79
2022/12/03 03:03:10;;;;;;;22.73;15.18;;;;;;;3.26;81.11;100084.47;1088679;46;20019;-79
2022/12/03 03:04:11;;;;;;;25.17;15.68;;;;;;;3.27;81.02;100084.41;1087609;54;20611;-78
2022/12/03 03:05:17;;;;;;;21.73;14.60;;;;;;;3.24;81.13;100081.94;1087122;54;20030;-81
2022/12/03 03:06:20;;;;;;;23.40;14.60;;;;;;;3.20;81.22;100083.09;1087554;54;20042;-79
2022/12/03 03:07:24;;;;;;;24.60;15.38;;;;;;;3.21;81.25;100090.06;1087428;54;20552;-80
2022/12/03 03:08:27;;;;;;;22.52;14.63;;;;;;;3.22;81.56;100089.13;1087378;54;20042;-79
2022/12/03 03:09:32;;;;;;;25.98;15.98;;;;;;;3.22;81.14;100086.47;1087136;54;20064;-80
2022/12/03 03:10:35;;;;;;;22.95;14.75;;;;;;;3.24;81.18;100089.03;1091366;39;20634;-80
2022/12/03 03:11:42;;;;;;;22.92;15.05;;;;;;;3.22;81.21;100086.47;1087377;54;20039;-81
2022/12/03 03:12:44;;;;;;;28.83;17.20;;;;;;;3.20;81.22;100083.09;1087277;54;20026;-80
2022/12/03 03:13:48;;;;;;;23.90;15.57;;;;;;;3.18;81.32;100090.28;1087301;54;20069;-79
2022/12/03 03:14:50;;;;;;;25.02;16.13;;;;;;;3.21;81.32;100091.88;1087337;54;20058;-80
2022/12/03 03:15:54;;;;;;;24.70;15.85;;;;;;;3.20;81.28;100087.53;1087169;54;20058;-79
2022/12/03 03:16:57;;;;;;;24.45;15.50;;;;;;;3.20;81.31;100091.03;1087166;54;20042;-81
2022/12/03 03:18:01;;;;;;;25.70;16.77;;;;;;;3.19;81.20;100088.47;1087962;39;20516;-79
2022/12/03 03:19:03;;;;;;;25.98;15.98;;;;;;;3.19;81.12;100091.97;1087310;54;20027;-80
2022/12/03 03:20:09;;;;;;;27.67;17.38;;;;;;;3.17;80.98;100091.22;1087732;54;20030;-79
2022/12/03 03:21:11;;;;;;;25.48;15.82;;;;;;;3.16;81.34;100092.16;1087765;54;20030;-79
2022/12/03 03:22:15;;;;;;;27.23;17.48;;;;;;;3.16;81.43;100086.03;1087639;54;20034;-79
2022/12/03 03:23:19;;;;;;;27.02;17.10;;;;;;;3.16;81.29;100094.78;1087200;54;20062;-79
2022/12/03 03:24:24;;;;;;;24.00;16.23;;;;;;;3.18;81.16;100095.56;1087327;54;20039;-79
2022/12/03 03:25:26;;;;;;;26.00;16.70;;;;;;;3.22;80.97;100090.91;1087027;54;20038;-80
2022/12/03 03:26:30;;;;;;;26.48;15.85;;;;;;;3.17;81.32;100093.00;1087983;39;20696;-80
2022/12/03 03:27:36;;;;;;;27.25;16.35;;;;;;;3.16;81.13;100097.44;1087161;54;20043;-79
2022/12/03 03:28:44;;;;;;;24.20;15.75;;;;;;;3.22;81.21;100098.84;1087219;54;20053;-80
2022/12/03 03:29:46;;;;;;;27.80;18.38;;;;;;;3.16;81.26;100097.44;1093439;39;20488;-80
2022/12/03 03:30:50;;;;;;;27.38;17.58;;;;;;;3.12;81.23;100102.06;1087448;54;20042;-80
2022/12/03 03:31:52;;;;;;;29.15;17.38;;;;;;;3.14;81.20;100094.03;1087366;54;20034;-79
2022/12/03 03:32:56;;;;;;;28.48;17.83;;;;;;;3.14;81.22;100093.19;1087318;54;20030;-80
2022/12/03 03:33:58;;;;;;;26.55;15.82;;;;;;;3.17;81.08;100095.63;1087241;54;20659;-80
2022/12/03 03:35:04;;;;;;;28.92;18.48;;;;;;;3.13;80.66;100087.06;1087920;39;20522;-81
2022/12/03 03:36:06;;;;;;;28.02;17.67;;;;;;;3.09;80.84;100096.13;1087545;54;20062;-79
2022/12/03 03:37:11;;;;;;;29.17;18.15;;;;;;;3.08;81.04;100095.25;1087589;54;20042;-80
2022/12/03 03:38:13;;;;;;;27.50;16.35;;;;;;;3.09;81.08;100088.22;1087554;54;20073;-79
2022/12/03 03:39:17;;;;;;;27.05;17.70;;;;;;;3.11;80.85;100094.25;1087649;54;20034;-78
2022/12/03 03:40:19;;;;;;;29.08;17.70;;;;;;;3.16;80.84;100091.31;1087777;54;20026;-78
2022/12/03 03:41:23;;;;;;;27.40;16.48;;;;;;;3.12;80.84;100090.63;1087663;54;20053;-80
2022/12/03 03:42:25;;;;;;;28.10;18.17;;;;;;;3.13;80.91;100089.69;1087572;54;20030;-78
2022/12/03 03:43:34;;;;;;;27.42;17.10;;;;;;;3.16;80.72;100086.88;1087315;54;20056;-79
2022/12/03 03:44:36;;;;;;;27.40;16.92;;;;;;;3.18;80.75;100086.75;1093982;39;20221;-80
2022/12/03 03:45:42;;;;;;;32.10;18.60;;;;;;;3.12;nan;100085.34;1087388;54;20018;-79
2022/12/03 03:46:43;;;;;;;29.30;18.17;;;;;;;3.12;80.70;100090.63;1087235;54;20069;-79
2022/12/03 03:47:48;;;;;;;27.23;17.83;;;;;;;3.13;80.76;100087.06;1087451;54;20674;-79
2022/12/03 03:48:50;;;;;;;29.90;17.98;;;;;;;3.06;80.99;100077.81;1087713;54;20073;-79
2022/12/03 03:49:56;;;;;;;30.75;19.27;;;;;;;3.08;80.83;100091.78;1087891;46;20564;-79
2022/12/03 03:50:58;;;;;;;29.20;18.73;;;;;;;3.04;80.93;100082.34;1087589;54;20021;-79
2022/12/03 03:52:02;;;;;;;30.60;18.55;;;;;;;3.10;80.70;100082.81;1087574;54;20038;-79
2022/12/03 03:53:04;;;;;;;32.53;19.77;;;;;;;3.11;80.88;100078.41;1088089;47;20061;-80
2022/12/03 03:54:09;;;;;;;30.10;18.08;;;;;;;3.04;80.85;100077.94;1089243;39;20807;-79
2022/12/03 03:55:11;;;;;;;31.02;19.95;;;;;;;3.08;80.93;100078.59;1087603;54;20054;-79
2022/12/03 03:56:19;;;;;;;32.53;19.27;;;;;;;3.11;80.84;100076.59;1087482;54;20035;-79
2022/12/03 03:57:20;;;;;;;30.67;18.30;;;;;;;3.14;80.98;100080.00;1087349;54;20037;-79
2022/12/03 03:58:25;;;;;;;27.35;17.75;;;;;;;3.28;80.47;100079.97;1087249;54;20018;-80
2022/12/03 03:59:29;;;;;;;32.95;18.90;;;;;;;3.23;80.22;100074.97;1087701;54;20030;-79
2022/12/03 04:00:33;;;;;;;31.23;19.75;;;;;;;3.21;80.66;100068.91;1087718;54;20034;-79
2022/12/03 04:01:35;;;;;;;29.00;18.50;;;;;;;3.20;80.58;100076.94;1087636;54;20042;-80
2022/12/03 04:02:40;;;;;;;28.02;18.05;;;;;;;3.19;80.63;100073.47;1087497;54;20038;-81
2022/12/03 04:03:44;;;;;;;31.10;18.55;;;;;;;3.22;80.51;100073.25;1087376;54;20050;-79
2022/12/03 04:04:47;;;;;;;29.55;18.42;;;;;;;3.22;80.59;100075.06;1087446;54;20062;-80
2022/12/03 04:05:51;;;;;;;27.45;17.80;;;;;;;3.29;80.24;100079.00;1086861;54;20065;-80
2022/12/03 04:06:53;;;;;;;32.60;20.13;;;;;;;3.24;80.04;100076.66;1087430;54;20054;-79
2022/12/03 04:08:00;;;;;;;30.05;18.23;;;;;;;3.23;80.14;100079.41;1087695;54;20744;-80
2022/12/03 04:09:01;;;;;;;27.35;17.70;;;;;;;3.27;80.31;100073.84;1087953;54;20046;-79
2022/12/03 04:12:54;;;;;;;27.65;18.05;;;;;;;3.30;79.94;100074.59;1088047;54;20058;-80
2022/12/03 04:12:56;;;;;;;28.77;17.25;;;;;;;3.33;79.90;100071.75;1088029;54;20034;-79
2022/12/03 04:14:00;;;;;;;29.77;17.90;;;;;;;3.39;79.96;100080.13;1088916;47;20049;-80
2022/12/03 04:15:06;;;;;;;30.83;18.88;;;;;;;3.30;79.53;100079.88;1091005;47;20038;-79
2022/12/03 04:16:10;;;;;;;30.48;18.42;;;;;;;3.35;79.90;100072.50;1087817;54;20031;-79
2022/12/03 04:17:12;;;;;;;32.75;18.85;;;;;;;3.35;79.73;100069.84;1087788;54;20034;-81
2022/12/03 04:19:33;;;;;;;33.88;19.95;;;;;;;3.38;79.42;100080.25;1087808;54;20753;-80
2022/12/03 04:20:34;;;;;;;30.80;18.73;;;;;;;3.38;79.50;100075.78;1087868;54;20038;-80
2022/12/03 04:22:52;;;;;;;28.98;18.08;;;;;;;3.39;79.59;100069.56;1087862;54;20057;-80
2022/12/03 04:23:57;;;;;;;29.98;18.63;;;;;;;3.49;79.01;100072.47;1088647;39;20641;-80
2022/12/03 04:29:05;;;;;;;28.58;17.83;;;;;;;3.44;79.05;100069.25;1087501;54;20061;-80
2022/12/03 04:30:10;;;;;;;31.73;19.10;;;;;;;3.38;78.87;100065.22;1089821;47;20045;-79
2022/12/03 04:36:34;;;;;;;31.38;17.48;;;;;;;3.48;78.70;100064.63;1087375;54;20030;-81
2022/12/03 04:37:39;;;;;;;33.63;18.10;;;;;;;3.54;78.50;100072.19;1087346;54;20035;-81
2022/12/03 04:38:40;;;;;;;29.48;18.98;;;;;;;3.52;78.69;100064.31;1087359;54;20055;-80
2022/12/03 04:39:44;;;;;;;33.05;20.55;;;;;;;3.45;78.52;100068.31;1087879;47;20090;-81
2022/12/03 04:41:02;;;;;;;33.30;19.77;;;;;;;3.41;78.63;100069.44;1087418;54;20053;-81
2022/12/03 04:42:07;;;;;;;31.63;19.88;;;;;;;3.42;78.82;100060.56;1087352;54;20053;-81
2022/12/03 04:43:08;;;;;;;32.22;20.40;;;;;;;3.45;78.88;100060.38;1087452;54;20050;-81
2022/12/03 04:45:33;;;;;;;31.13;18.80;;;;;;;3.48;78.43;100061.97;1087459;54;20033;-80
2022/12/03 04:46:34;;;;;;;35.53;21.33;;;;;;;3.42;78.41;100068.50;1087420;54;20042;-80
2022/12/03 04:47:39;;;;;;;30.77;20.20;;;;;;;3.39;78.68;100066.09;1100496;39;20739;-80
2022/12/03 04:48:41;;;;;;;36.20;21.23;;;;;;;3.40;78.63;100057.22;1087330;54;20030;-80
2022/12/03 04:49:47;;;;;;;33.75;19.80;;;;;;;3.42;78.39;100063.22;1087394;54;20023;-80
2022/12/03 04:50:48;;;;;;;33.67;20.17;;;;;;;3.42;78.51;100063.22;1087407;54;20053;-81
2022/12/03 04:51:52;;;;;;;36.55;21.17;;;;;;;3.40;78.78;100065.13;1087316;54;20042;-79
2022/12/03 04:52:54;;;;;;;31.33;19.55;;;;;;;3.43;78.52;100059.63;1087353;54;20035;-81
2022/12/03 04:53:58;;;;;;;36.90;22.30;;;;;;;3.33;78.44;100056.75;1087290;54;20034;-80
2022/12/03 04:55:02;;;;;;;36.40;22.55;;;;;;;3.34;78.81;100057.59;1087254;54;20335;-81
2022/12/03 04:56:04;;;;;;;39.20;22.30;;;;;;;3.26;78.88;100064.22;1087330;54;20037;-79
2022/12/03 04:57:10;;;;;;;34.55;21.15;;;;;;;3.35;78.82;100072.50;1087338;54;20053;-81
2022/12/03 04:58:11;;;;;;;39.13;23.33;;;;;;;3.32;78.71;100062.09;1087330;54;20034;-80
2022/12/03 04:59:16;;;;;;;35.83;21.85;;;;;;;3.30;78.81;100062.22;1087332;54;20026;-80
2022/12/03 05:00:18;;;;;;;35.15;21.38;;;;;;;3.39;78.69;100058.97;1087366;54;20065;-80
2022/12/03 05:01:24;;;;;;;36.92;22.95;;;;;;;3.32;78.82;100056.81;1087659;47;20101;-80
2022/12/03 05:02:29;;;;;;;38.05;21.75;;;;;;;3.33;79.14;100061.16;1087402;54;20057;-80
2022/12/03 05:03:30;;;;;;;35.03;22.00;;;;;;;3.30;78.82;100059.56;1087237;54;20034;-81
2022/12/03 05:04:35;;;;;;;37.97;22.98;;;;;;;3.28;79.05;100064.97;1087297;54;20038;-81
2022/12/03 05:05:36;;;;;;;35.40;20.98;;;;;;;3.28;79.00;100066.75;1089333;39;20752;-81
2022/12/03 05:06:40;;;;;;;37.63;22.58;;;;;;;3.35;78.95;100059.28;1086869;54;20023;-80
2022/12/03 05:07:45;;;;;;;34.90;21.90;;;;;;;3.35;78.67;100059.28;1087480;54;20022;-81
2022/12/03 05:08:46;;;;;;;37.83;21.88;;;;;;;3.30;78.80;100061.38;1087553;54;20034;-79
2022/12/03 05:09:50;;;;;;;42.00;23.90;;;;;;;3.22;79.00;100067.97;1088249;47;20841;-80
2022/12/03 05:10:58;;;;;;;39.60;23.73;;;;;;;3.10;79.09;100064.31;1087756;54;20057;-81
2022/12/03 05:13:05;;;;;;;39.47;22.90;;;;;;;3.10;79.44;100074.06;1085726;54;20084;-78